createdAt,value
2023-04-17T00:01:51.490Z,10.73
2023-04-17T00:04:24.807Z,10.82
2023-04-17T00:06:59.333Z,10.74
2023-04-17T00:09:32.424Z,10.74
2023-04-17T00:12:05.761Z,10.69
2023-04-17T00:14:38.599Z,10.76
2023-04-17T00:17:12.798Z,10.79
2023-04-17T00:19:45.829Z,10.64
2023-04-17T00:22:18.645Z,10.68
2023-04-17T00:24:51.578Z,10.72
2023-04-17T00:27:24.529Z,10.68
2023-04-17T00:29:57.453Z,10.66
2023-04-17T00:32:32.016Z,10.69
2023-04-17T00:35:05.356Z,10.71
2023-04-17T00:37:38.474Z,10.70
2023-04-17T00:40:12.701Z,10.73
2023-04-17T00:42:52.798Z,10.63
2023-04-17T00:45:25.663Z,10.66
2023-04-17T00:48:00.768Z,10.64
2023-04-17T00:50:34.301Z,10.69
2023-04-17T00:53:07.759Z,10.66
2023-04-17T00:55:44.025Z,10.66
2023-04-17T00:58:16.971Z,10.62
2023-04-17T01:00:50.034Z,10.55
2023-04-17T01:03:24.605Z,10.66
2023-04-17T01:05:57.758Z,10.60
2023-04-17T01:08:36.216Z,10.53
2023-04-17T01:11:09.507Z,10.49
2023-04-17T01:13:46.860Z,10.56
2023-04-17T01:16:20.570Z,10.49
2023-04-17T01:18:55.822Z,10.45
2023-04-17T01:21:29.032Z,10.48
2023-04-17T01:24:04.806Z,10.33
2023-04-17T01:26:38.656Z,10.28
2023-04-17T01:29:11.660Z,10.17
2023-04-17T01:31:44.852Z,10.18
2023-04-17T01:34:18.043Z,10.23
2023-04-17T01:36:51.117Z,10.31
2023-04-17T01:39:25.598Z,10.32
2023-04-17T01:41:58.374Z,10.20
2023-04-17T01:44:31.377Z,10.31
2023-04-17T01:47:04.458Z,10.41
2023-04-17T01:49:37.450Z,10.35
2023-04-17T01:52:10.209Z,10.39
2023-04-17T01:54:45.328Z,10.29
2023-04-17T01:57:18.616Z,10.30
2023-04-17T01:59:51.531Z,10.30
2023-04-17T02:02:24.915Z,10.34
2023-04-17T02:04:57.973Z,10.33
2023-04-17T02:07:30.990Z,10.32
2023-04-17T02:10:06.079Z,10.31
2023-04-17T02:12:38.733Z,10.31
2023-04-17T02:15:12.406Z,10.26
2023-04-17T02:17:45.229Z,10.25
2023-04-17T02:20:18.148Z,10.26
2023-04-17T02:22:51.078Z,10.27
2023-04-17T02:25:25.371Z,10.25
2023-04-17T02:27:59.305Z,10.15
2023-04-17T02:30:33.521Z,10.01
2023-04-17T02:33:07.165Z,9.93
2023-04-17T02:35:40.513Z,9.88
2023-04-17T02:38:13.683Z,9.79
2023-04-17T02:40:48.412Z,9.84
2023-04-17T02:43:21.346Z,9.89
2023-04-17T02:45:55.323Z,9.80
2023-04-17T02:48:28.368Z,9.91
2023-04-17T02:51:02.072Z,9.90
2023-04-17T02:53:36.204Z,9.75
2023-04-17T02:56:10.467Z,9.79
2023-04-17T02:58:45.492Z,9.76
2023-04-17T03:01:18.296Z,9.71
2023-04-17T03:03:52.901Z,9.66
2023-04-17T03:06:26.886Z,9.68
2023-04-17T03:08:59.668Z,9.67
2023-04-17T03:11:34.153Z,9.56
2023-04-17T03:14:07.059Z,9.53
2023-04-17T03:16:40.203Z,9.40
2023-04-17T03:19:13.186Z,9.47
2023-04-17T03:21:46.757Z,9.42
2023-04-17T03:24:22.616Z,9.35
2023-04-17T03:26:57.514Z,9.33
2023-04-17T03:29:33.933Z,9.19
2023-04-17T03:32:07.200Z,9.20
2023-04-17T03:34:40.197Z,9.15
2023-04-17T03:37:13.071Z,9.11
2023-04-17T03:39:45.939Z,9.13
2023-04-17T03:42:20.172Z,9.11
2023-04-17T03:44:55.333Z,9.13
2023-04-17T03:47:30.364Z,9.09
2023-04-17T03:50:03.576Z,9.21
2023-04-17T03:52:43.088Z,9.21
2023-04-17T03:55:16.657Z,9.23
2023-04-17T03:57:52.595Z,9.25
2023-04-17T04:00:26.521Z,9.14
2023-04-17T04:03:05.332Z,9.28
2023-04-17T04:05:44.741Z,9.28
2023-04-17T04:08:17.692Z,9.14
2023-04-17T04:10:55.158Z,9.20
2023-04-17T04:13:38.023Z,9.14
2023-04-17T04:16:12.714Z,9.17
2023-04-17T04:18:46.685Z,9.31
2023-04-17T04:21:21.161Z,9.20
2023-04-17T04:23:56.061Z,9.09
2023-04-17T04:26:29.751Z,9.09
2023-04-17T04:29:05.845Z,9.07
2023-04-17T04:31:51.121Z,8.96
2023-04-17T04:34:29.941Z,8.94
2023-04-17T04:37:03.563Z,8.95
2023-04-17T04:39:44.530Z,8.87
2023-04-17T04:42:22.300Z,8.84
2023-04-17T04:45:07.766Z,8.88
2023-04-17T04:47:41.300Z,8.92
2023-04-17T04:50:14.174Z,8.82
2023-04-17T04:52:46.959Z,8.89
2023-04-17T04:55:45.856Z,8.93
2023-04-17T04:58:19.247Z,8.98
2023-04-17T05:00:55.461Z,8.87
2023-04-17T05:03:37.269Z,8.80
2023-04-17T05:06:13.574Z,8.85
2023-04-17T05:08:51.227Z,8.84
2023-04-17T05:11:24.378Z,8.79
2023-04-17T05:13:57.621Z,8.81
2023-04-17T05:16:35.618Z,8.95
2023-04-17T05:19:09.225Z,8.94
2023-04-17T05:21:53.841Z,8.77
2023-04-17T05:24:27.795Z,8.77
2023-04-17T05:27:02.013Z,8.93
2023-04-17T05:29:34.863Z,8.91
2023-04-17T05:32:09.312Z,8.91
2023-04-17T05:34:54.510Z,8.89
2023-04-17T05:37:31.159Z,8.90
2023-04-17T05:40:07.024Z,9.01
2023-04-17T05:42:40.302Z,8.97
2023-04-17T05:45:15.080Z,9.02
2023-04-17T05:47:49.675Z,8.92
2023-04-17T05:50:22.650Z,8.98
2023-04-17T05:52:55.899Z,8.99
2023-04-17T05:55:32.162Z,9.08
2023-04-17T05:58:16.815Z,9.08
2023-04-17T06:00:56.088Z,9.12
2023-04-17T06:03:31.798Z,9.03
2023-04-17T06:06:11.362Z,9.07
2023-04-17T06:08:44.205Z,9.10
2023-04-17T06:11:17.141Z,9.14
2023-04-17T06:13:51.868Z,9.12
2023-04-17T06:16:25.505Z,9.16
2023-04-17T06:18:59.870Z,9.22
2023-04-17T06:21:34.134Z,9.11
2023-04-17T06:24:07.978Z,9.07
2023-04-17T06:26:41.096Z,9.17
2023-04-17T06:29:15.519Z,9.17
2023-04-17T06:31:50.236Z,9.20
2023-04-17T06:34:27.523Z,9.21
2023-04-17T06:37:01.603Z,9.38
2023-04-17T06:39:35.210Z,9.52
2023-04-17T06:42:08.832Z,9.62
2023-04-17T06:44:45.295Z,9.63
2023-04-17T06:47:19.668Z,9.54
2023-04-17T06:49:53.868Z,9.63
2023-04-17T06:52:27.311Z,9.79
2023-04-17T06:55:00.403Z,9.78
2023-04-17T06:57:34.532Z,9.60
2023-04-17T07:00:08.396Z,9.72
2023-04-17T07:02:41.255Z,9.67
2023-04-17T07:05:15.679Z,9.80
2023-04-17T07:07:49.236Z,9.82
2023-04-17T07:10:22.335Z,9.97
2023-04-17T07:12:56.095Z,9.85
2023-04-17T07:15:30.531Z,10.08
2023-04-17T07:18:03.620Z,10.04
2023-04-17T07:20:37.868Z,10.12
2023-04-17T07:23:11.042Z,9.76
2023-04-17T07:25:44.299Z,10.14
2023-04-17T07:28:17.620Z,10.25
2023-04-17T07:30:51.045Z,10.42
2023-04-17T07:33:23.912Z,10.24
2023-04-17T07:35:58.124Z,10.46
2023-04-17T07:38:32.289Z,10.61
2023-04-17T07:41:05.916Z,10.55
2023-04-17T07:43:38.750Z,10.84
2023-04-17T07:46:11.549Z,10.90
2023-04-17T07:48:44.349Z,11.02
2023-04-17T07:51:19.028Z,11.03
2023-04-17T07:53:52.219Z,11.05
2023-04-17T07:56:25.479Z,10.78
2023-04-17T07:58:58.352Z,11.23
2023-04-17T08:01:32.070Z,11.10
2023-04-17T08:04:05.700Z,11.39
2023-04-17T08:06:40.398Z,11.28
2023-04-17T08:09:13.565Z,11.21
2023-04-17T08:11:56.268Z,11.42
2023-04-17T08:14:30.916Z,11.25
2023-04-17T08:17:04.113Z,11.49
2023-04-17T08:19:37.325Z,11.63
2023-04-17T08:22:11.565Z,12.10
2023-04-17T08:24:44.361Z,12.05
2023-04-17T08:27:17.512Z,11.75
2023-04-17T08:29:50.358Z,12.06
2023-04-17T08:32:23.452Z,12.03
2023-04-17T08:34:59.180Z,12.24
2023-04-17T08:37:34.970Z,12.14
2023-04-17T08:40:09.352Z,12.42
2023-04-17T08:42:43.447Z,12.82
2023-04-17T08:45:16.347Z,12.30
2023-04-17T08:47:49.406Z,12.63
2023-04-17T08:50:23.297Z,13.08
2023-04-17T08:52:57.851Z,12.71
2023-04-17T08:55:31.233Z,13.39
2023-04-17T08:58:06.052Z,13.45
2023-04-17T09:00:39.485Z,13.22
2023-04-17T09:03:13.966Z,13.63
2023-04-17T09:05:48.292Z,13.55
2023-04-17T09:08:23.978Z,13.57
2023-04-17T09:10:56.899Z,13.83
2023-04-17T09:13:30.412Z,13.41
2023-04-17T09:16:08.683Z,13.47
2023-04-17T09:18:42.924Z,13.26
2023-04-17T09:21:21.062Z,13.41
2023-04-17T09:23:59.287Z,13.38
2023-04-17T09:26:33.300Z,14.11
2023-04-17T09:29:08.808Z,14.56
2023-04-17T09:31:43.251Z,14.82
2023-04-17T09:34:16.784Z,14.30
2023-04-17T09:36:55.146Z,14.52
2023-04-17T09:39:29.388Z,14.74
2023-04-17T09:42:04.441Z,14.90
2023-04-17T09:44:37.876Z,15.25
2023-04-17T09:47:12.390Z,15.62
2023-04-17T09:49:49.903Z,15.81
2023-04-17T09:52:24.612Z,15.64
2023-04-17T09:54:59.009Z,14.98
2023-04-17T09:57:32.057Z,15.08
2023-04-17T10:00:10.646Z,15.67
2023-04-17T10:02:43.616Z,16.31
2023-04-17T10:05:16.839Z,15.61
2023-04-17T10:07:49.913Z,16.16
2023-04-17T10:10:26.300Z,15.89
2023-04-17T10:13:01.570Z,16.14
2023-04-17T10:15:35.103Z,16.99
2023-04-17T10:18:20.742Z,16.53
2023-04-17T10:20:55.288Z,16.50
2023-04-17T10:23:33.534Z,16.72
2023-04-17T10:26:46.405Z,16.54
2023-04-17T10:29:52.976Z,16.51
2023-04-17T10:32:28.515Z,16.83
2023-04-17T10:35:04.075Z,16.21
2023-04-17T10:38:08.143Z,16.86
2023-04-17T10:40:44.752Z,17.44
2023-04-17T10:43:19.810Z,17.49
2023-04-17T10:45:58.549Z,17.45
2023-04-17T10:48:36.426Z,18.56
2023-04-17T10:51:41.651Z,17.33
2023-04-17T10:54:15.747Z,16.98
2023-04-17T10:56:49.191Z,18.18
2023-04-17T10:59:23.387Z,18.08
2023-04-17T11:02:04.242Z,18.04
2023-04-17T11:04:37.534Z,18.21
2023-04-17T11:07:13.436Z,18.56
2023-04-17T11:09:52.898Z,18.95
2023-04-17T11:12:25.916Z,18.53
2023-04-17T11:15:03.091Z,18.93
2023-04-17T11:17:40.868Z,17.64
2023-04-17T11:20:17.184Z,17.40
2023-04-17T11:22:50.575Z,18.18
2023-04-17T11:25:24.857Z,18.82
2023-04-17T11:27:58.186Z,18.48
2023-04-17T11:30:32.642Z,18.69
2023-04-17T11:33:07.603Z,18.45
2023-04-17T11:35:43.149Z,19.16
2023-04-17T11:38:20.892Z,18.64
2023-04-17T11:40:58.820Z,18.68
2023-04-17T11:43:37.562Z,18.60
2023-04-17T11:46:10.920Z,18.85
2023-04-17T11:48:49.911Z,18.14
2023-04-17T11:51:22.993Z,19.20
2023-04-17T11:53:56.468Z,19.38
2023-04-17T11:56:30.738Z,19.09
2023-04-17T11:59:05.011Z,18.39
2023-04-17T12:01:53.175Z,18.70
2023-04-17T12:04:29.143Z,19.00
2023-04-17T12:07:02.205Z,19.42
2023-04-17T12:09:36.410Z,18.67
2023-04-17T12:12:09.503Z,18.09
2023-04-17T12:14:42.405Z,18.62
2023-04-17T12:17:15.250Z,18.40
2023-04-17T12:19:50.285Z,18.56
2023-04-17T12:22:23.384Z,18.91
2023-04-17T12:24:56.451Z,19.71
2023-04-17T12:27:29.625Z,19.35
2023-04-17T12:30:06.648Z,18.68
2023-04-17T12:32:40.273Z,18.13
2023-04-17T12:35:14.793Z,19.35
2023-04-17T12:37:51.052Z,19.32
2023-04-17T12:40:25.059Z,19.05
2023-04-17T12:42:57.945Z,18.83
2023-04-17T12:45:30.933Z,18.57
2023-04-17T12:48:03.945Z,18.84
2023-04-17T12:50:42.213Z,18.80
2023-04-17T12:53:16.023Z,19.68
2023-04-17T12:55:49.021Z,19.73
2023-04-17T12:58:22.326Z,19.71
2023-04-17T13:00:55.186Z,19.26
2023-04-17T13:03:28.182Z,17.77
2023-04-17T13:06:02.710Z,18.27
2023-04-17T13:08:35.370Z,18.92
2023-04-17T13:11:08.239Z,18.09
2023-04-17T13:13:41.017Z,18.38
2023-04-17T13:16:13.868Z,18.35
2023-04-17T13:18:46.765Z,18.62
2023-04-17T13:21:21.202Z,19.29
2023-04-17T13:23:53.982Z,20.16
2023-04-17T13:26:26.776Z,20.47
2023-04-17T13:28:59.683Z,19.41
2023-04-17T13:31:32.637Z,19.05
2023-04-17T13:34:05.490Z,18.82
2023-04-17T13:36:39.794Z,19.39
2023-04-17T13:39:13.418Z,19.90
2023-04-17T13:41:46.681Z,21.01
2023-04-17T13:44:19.853Z,20.39
2023-04-17T13:46:52.886Z,21.09
2023-04-17T13:49:27.010Z,21.42
2023-04-17T13:52:01.223Z,21.53
2023-04-17T13:54:34.107Z,21.89
2023-04-17T13:57:07.229Z,21.41
2023-04-17T13:59:40.080Z,21.56
2023-04-17T14:02:13.012Z,21.88
2023-04-17T14:04:46.183Z,20.42
2023-04-17T14:07:20.442Z,19.77
2023-04-17T14:09:53.092Z,19.07
2023-04-17T14:12:26.170Z,21.23
2023-04-17T14:14:59.359Z,21.95
2023-04-17T14:17:32.522Z,21.26
2023-04-17T14:20:06.172Z,21.53
2023-04-17T14:22:40.517Z,21.07
2023-04-17T14:25:13.396Z,20.09
2023-04-17T14:27:46.781Z,19.94
2023-04-17T14:30:19.609Z,19.68
2023-04-17T14:32:53.408Z,20.79
2023-04-17T14:35:26.299Z,21.62
2023-04-17T14:38:04.870Z,21.24
2023-04-17T14:40:37.855Z,21.29
2023-04-17T14:43:10.670Z,19.68
2023-04-17T14:45:43.722Z,19.93
2023-04-17T14:48:16.522Z,20.65
2023-04-17T14:50:49.331Z,21.34
2023-04-17T14:53:23.563Z,20.93
2023-04-17T14:55:58.057Z,21.41
2023-04-17T14:58:31.167Z,22.63
2023-04-17T15:01:04.359Z,20.78
2023-04-17T15:03:37.312Z,22.00
2023-04-17T15:06:10.632Z,23.52
2023-04-17T15:08:45.979Z,22.45
2023-04-17T15:11:18.987Z,22.03
2023-04-17T15:13:54.845Z,22.21
2023-04-17T15:16:27.712Z,21.60
2023-04-17T15:19:00.633Z,21.41
2023-04-17T15:21:33.579Z,20.50
2023-04-17T15:24:08.463Z,19.40
2023-04-17T15:26:43.414Z,19.99
2023-04-17T15:29:17.383Z,20.83
2023-04-17T15:31:52.485Z,20.80
2023-04-17T15:34:25.382Z,24.10
2023-04-17T15:36:58.361Z,25.57
2023-04-17T15:39:32.718Z,26.82
2023-04-17T15:42:08.418Z,25.45
2023-04-17T15:44:41.262Z,25.07
2023-04-17T15:47:14.079Z,25.86
2023-04-17T15:49:48.013Z,25.55
2023-04-17T15:52:20.898Z,26.27
2023-04-17T15:54:55.061Z,26.44
2023-04-17T15:57:27.733Z,28.06
2023-04-17T16:00:00.558Z,27.72
2023-04-17T16:02:33.740Z,25.69
2023-04-17T16:05:07.428Z,25.91
2023-04-17T16:07:40.577Z,25.22
2023-04-17T16:10:14.974Z,27.60
2023-04-17T16:12:47.913Z,26.53
2023-04-17T16:15:21.087Z,28.91
2023-04-17T16:17:53.976Z,29.45
2023-04-17T16:20:27.046Z,28.22
2023-04-17T16:22:59.966Z,27.00
2023-04-17T16:25:34.219Z,27.15
2023-04-17T16:28:07.054Z,28.11
2023-04-17T16:30:40.714Z,30.93
2023-04-17T16:33:13.528Z,28.25
2023-04-17T16:35:46.399Z,29.21
2023-04-17T16:38:21.428Z,27.33
2023-04-17T16:40:56.995Z,28.78
2023-04-17T16:43:30.988Z,31.45
2023-04-17T16:46:14.471Z,29.07
2023-04-17T16:48:54.662Z,31.68
2023-04-17T16:51:27.695Z,32.73
2023-04-17T16:54:01.090Z,31.02
2023-04-17T16:56:35.449Z,31.36
2023-04-17T16:59:08.628Z,34.47
2023-04-17T17:01:41.474Z,32.34
2023-04-17T17:04:14.347Z,32.06
2023-04-17T17:06:47.320Z,29.87
2023-04-17T17:09:20.558Z,31.37
2023-04-17T17:11:54.694Z,32.80
2023-04-17T17:14:27.362Z,32.89
2023-04-17T17:17:00.310Z,30.78
2023-04-17T17:19:33.141Z,32.14
2023-04-17T17:22:05.950Z,33.52
2023-04-17T17:24:39.008Z,32.92
2023-04-17T17:27:14.646Z,29.56
2023-04-17T17:29:47.681Z,29.63
2023-04-17T17:32:20.717Z,31.10
2023-04-17T17:34:53.961Z,31.41
2023-04-17T17:37:27.451Z,29.46
2023-04-17T17:40:00.544Z,28.67
2023-04-17T17:42:35.484Z,26.17
2023-04-17T17:45:09.141Z,24.56
2023-04-17T17:47:42.085Z,22.90
2023-04-17T17:50:15.024Z,22.09
2023-04-17T17:52:47.996Z,21.73
2023-04-17T17:55:21.782Z,20.65
2023-04-17T17:57:55.946Z,20.58
2023-04-17T18:00:28.669Z,19.98
2023-04-17T18:03:02.525Z,20.45
2023-04-17T18:05:37.544Z,19.62
2023-04-17T18:08:10.933Z,19.96
2023-04-17T18:10:44.159Z,19.15
2023-04-17T18:13:18.388Z,19.47
2023-04-17T18:15:51.365Z,19.23
2023-04-17T18:18:24.231Z,18.40
2023-04-17T18:20:57.396Z,18.01
2023-04-17T18:23:30.388Z,17.92
2023-04-17T18:26:04.419Z,18.16
2023-04-17T18:28:38.620Z,18.33
2023-04-17T18:31:12.516Z,17.95
2023-04-17T18:33:45.519Z,17.93
2023-04-17T18:36:18.338Z,17.99
2023-04-17T18:38:51.146Z,18.26
2023-04-17T18:41:24.052Z,18.32
2023-04-17T18:43:58.259Z,18.01
2023-04-17T18:46:31.264Z,17.70
2023-04-17T18:49:04.352Z,17.90
2023-04-17T18:51:38.315Z,17.67
2023-04-17T18:54:11.347Z,17.41
2023-04-17T18:56:44.837Z,17.33
2023-04-17T18:59:20.279Z,17.32
2023-04-17T19:01:53.269Z,17.28
2023-04-17T19:04:26.772Z,17.34
2023-04-17T19:06:59.624Z,17.19
2023-04-17T19:09:32.483Z,16.86
2023-04-17T19:12:05.649Z,16.77
2023-04-17T19:14:39.932Z,16.63
2023-04-17T19:17:12.794Z,16.81
2023-04-17T19:19:46.077Z,16.56
2023-04-17T19:22:18.877Z,16.47
2023-04-17T19:24:52.838Z,16.49
2023-04-17T19:27:27.227Z,16.31
2023-04-17T19:30:01.811Z,16.31
2023-04-17T19:32:34.536Z,16.17
2023-04-17T19:35:08.542Z,15.68
2023-04-17T19:37:42.414Z,15.83
2023-04-17T19:40:24.582Z,15.78
2023-04-17T19:43:01.326Z,15.63
2023-04-17T19:45:36.034Z,15.35
2023-04-17T19:48:08.991Z,15.37
2023-04-17T19:50:41.836Z,15.27
2023-04-17T19:53:14.611Z,15.14
2023-04-17T19:55:47.468Z,15.14
2023-04-17T19:58:20.235Z,14.83
2023-04-17T20:00:54.579Z,14.75
2023-04-17T20:03:28.774Z,14.49
2023-04-17T20:06:03.335Z,14.38
2023-04-17T20:08:36.267Z,14.13
2023-04-17T20:11:11.796Z,14.32
2023-04-17T20:13:44.622Z,14.13
2023-04-17T20:16:18.985Z,14.07
2023-04-17T20:18:52.585Z,13.95
2023-04-17T20:21:25.449Z,13.71
2023-04-17T20:23:59.341Z,13.53
2023-04-17T20:26:32.126Z,13.52
2023-04-17T20:29:05.069Z,13.47
2023-04-17T20:31:39.356Z,12.84
2023-04-17T20:34:12.401Z,12.92
2023-04-17T20:36:45.480Z,12.95
2023-04-17T20:39:18.584Z,13.04
2023-04-17T20:41:51.496Z,12.84
2023-04-17T20:44:24.468Z,13.09
2023-04-17T20:46:58.704Z,12.79
2023-04-17T20:49:33.724Z,12.59
2023-04-17T20:52:07.064Z,12.62
2023-04-17T20:54:39.859Z,12.50
2023-04-17T20:57:12.819Z,12.43
2023-04-17T20:59:45.654Z,12.36
2023-04-17T21:02:21.729Z,12.28
2023-04-17T21:04:54.883Z,12.37
2023-04-17T21:07:27.716Z,11.94
2023-04-17T21:10:00.541Z,12.21
2023-04-17T21:12:35.004Z,11.99
2023-04-17T21:15:09.392Z,12.13
2023-04-17T21:17:46.651Z,12.09
2023-04-17T21:20:19.617Z,11.90
2023-04-17T21:22:52.447Z,11.73
2023-04-17T21:25:25.435Z,11.61
2023-04-17T21:27:58.279Z,11.53
2023-04-17T21:30:31.143Z,11.61
2023-04-17T21:33:05.537Z,11.65
2023-04-17T21:35:39.291Z,11.33
2023-04-17T21:38:12.518Z,11.35
2023-04-17T21:40:51.163Z,11.25
2023-04-17T21:43:24.782Z,11.20
2023-04-17T21:45:57.741Z,11.08
2023-04-17T21:48:32.268Z,11.13
2023-04-17T21:51:05.888Z,11.37
2023-04-17T21:53:38.688Z,11.23
2023-04-17T21:56:11.459Z,11.50
2023-04-17T21:58:44.214Z,11.15
2023-04-17T22:01:17.003Z,11.03
2023-04-17T22:03:51.154Z,10.80
2023-04-17T22:06:24.068Z,10.72
2023-04-17T22:08:56.890Z,10.50
2023-04-17T22:11:29.705Z,10.50
2023-04-17T22:14:02.510Z,10.52
2023-04-17T22:16:35.390Z,10.56
2023-04-17T22:19:09.863Z,10.15
2023-04-17T22:21:42.659Z,10.22
2023-04-17T22:24:15.806Z,9.96
2023-04-17T22:26:48.622Z,10.15
2023-04-17T22:29:21.403Z,10.08
2023-04-17T22:31:54.183Z,9.99
2023-04-17T22:34:28.337Z,9.91
2023-04-17T22:37:01.448Z,9.72
2023-04-17T22:39:34.238Z,9.75
2023-04-17T22:42:07.153Z,9.60
2023-04-17T22:44:39.998Z,9.70
2023-04-17T22:47:12.842Z,9.63
2023-04-17T22:49:46.974Z,9.74
2023-04-17T22:52:20.481Z,9.44
2023-04-17T22:54:53.491Z,9.60
2023-04-17T22:57:26.387Z,9.58
2023-04-17T22:59:59.162Z,9.46
2023-04-17T23:02:32.253Z,9.41
2023-04-17T23:05:07.766Z,9.50
2023-04-17T23:07:42.601Z,9.21
2023-04-17T23:10:15.267Z,9.21
2023-04-17T23:12:48.046Z,8.96
2023-04-17T23:15:20.996Z,8.90
2023-04-17T23:17:53.794Z,8.99
2023-04-17T23:20:28.087Z,9.10
2023-04-17T23:23:00.883Z,8.85
2023-04-17T23:25:33.632Z,8.81
2023-04-17T23:28:06.445Z,8.82
2023-04-17T23:30:39.235Z,8.55
2023-04-17T23:33:12.353Z,8.75
2023-04-17T23:35:46.687Z,8.68
2023-04-17T23:38:19.999Z,8.70
2023-04-17T23:40:55.835Z,8.75
2023-04-17T23:43:28.619Z,8.59
2023-04-17T23:46:01.695Z,8.59
2023-04-17T23:48:34.783Z,8.53
2023-04-17T23:51:09.055Z,8.62
2023-04-17T23:53:41.899Z,8.35
2023-04-17T23:56:14.657Z,8.47
2023-04-17T23:58:47.623Z,8.47
